createdAt,value
2024-03-11T00:01:31.277Z,95638.83
2024-03-11T00:04:02.544Z,95631.39
2024-03-11T00:06:36.268Z,95631.04
2024-03-11T00:09:16.952Z,95627.64
2024-03-11T00:11:56.452Z,95629.35
2024-03-11T00:14:30.239Z,95629.78
2024-03-11T00:17:03.730Z,95624.05
2024-03-11T00:19:35.005Z,95624.61
2024-03-11T00:22:05.952Z,95629.19
2024-03-11T00:24:36.878Z,95639.05
2024-03-11T00:27:09.434Z,95643.64
2024-03-11T00:29:40.638Z,95653.99
2024-03-11T00:32:15.362Z,95659.84
2024-03-11T00:34:46.842Z,95665.25
2024-03-11T00:37:18.048Z,95665.47
2024-03-11T00:39:49.458Z,95671.89
2024-03-11T00:42:20.852Z,95670.06
2024-03-11T00:44:52.004Z,95665.05
2024-03-11T00:47:23.707Z,95659.20
2024-03-11T00:49:54.647Z,95656.83
2024-03-11T00:52:26.380Z,95655.61
2024-03-11T00:54:57.759Z,95653.72
2024-03-11T00:57:28.726Z,95646.23
2024-03-11T01:00:00.201Z,95637.91
2024-03-11T01:02:31.343Z,95637.89
2024-03-11T01:05:02.540Z,95641.81
2024-03-11T01:07:44.896Z,95639.48
2024-03-11T01:10:18.927Z,95638.05
2024-03-11T01:12:51.214Z,95638.65
2024-03-11T01:15:23.292Z,95640.42
2024-03-11T01:17:54.212Z,95634.08
2024-03-11T01:20:25.562Z,95629.65
2024-03-11T01:22:56.883Z,95625.23
2024-03-11T01:25:27.780Z,95621.77
2024-03-11T01:27:58.738Z,95620.14
2024-03-11T01:30:29.762Z,95615.09
2024-03-11T01:33:00.806Z,95619.05
2024-03-11T01:35:31.949Z,95621.73
2024-03-11T01:38:02.857Z,95632.96
2024-03-11T01:40:33.819Z,95641.80
2024-03-11T01:43:05.261Z,95643.69
2024-03-11T01:45:36.386Z,95631.06
2024-03-11T01:48:10.986Z,95627.77
2024-03-11T01:50:44.654Z,95625.80
2024-03-11T01:53:16.264Z,95618.02
2024-03-11T01:55:49.488Z,95609.56
2024-03-11T01:58:24.188Z,95608.41
2024-03-11T02:00:56.577Z,95621.84
2024-03-11T02:03:27.554Z,95633.58
2024-03-11T02:05:58.953Z,95634.52
2024-03-11T02:08:29.915Z,95644.80
2024-03-11T02:11:00.913Z,95651.64
2024-03-11T02:13:32.417Z,95651.50
2024-03-11T02:16:03.723Z,95643.83
2024-03-11T02:18:35.784Z,95643.04
2024-03-11T02:21:07.296Z,95642.33
2024-03-11T02:23:38.446Z,95653.07
2024-03-11T02:26:09.454Z,95651.95
2024-03-11T02:28:40.478Z,95646.15
2024-03-11T02:31:11.378Z,95642.76
2024-03-11T02:33:42.311Z,95637.63
2024-03-11T02:36:13.402Z,95630.78
2024-03-11T02:38:44.358Z,95634.04
2024-03-11T02:41:15.784Z,95629.83
2024-03-11T02:43:46.687Z,95628.66
2024-03-11T02:46:18.542Z,95624.42
2024-03-11T02:48:49.424Z,95634.60
2024-03-11T02:51:20.844Z,95635.27
2024-03-11T02:53:52.007Z,95640.70
2024-03-11T02:56:23.585Z,95634.52
2024-03-11T02:58:55.323Z,95636.56
2024-03-11T03:01:27.266Z,95634.21
2024-03-11T03:03:58.362Z,95634.39
2024-03-11T03:06:29.582Z,95631.11
2024-03-11T03:09:01.660Z,95626.78
2024-03-11T03:11:32.686Z,95623.72
2024-03-11T03:14:03.776Z,95620.51
2024-03-11T03:16:34.836Z,95617.98
2024-03-11T03:19:05.857Z,95621.48
2024-03-11T03:21:37.965Z,95627.33
2024-03-11T03:24:09.286Z,95633.58
2024-03-11T03:26:40.216Z,95637.80
2024-03-11T03:29:12.716Z,95634.11
2024-03-11T03:31:43.762Z,95636.48
2024-03-11T03:34:14.782Z,95635.58
2024-03-11T03:36:46.444Z,95642.38
2024-03-11T03:39:18.508Z,95644.47
2024-03-11T03:41:51.673Z,95652.86
2024-03-11T03:44:23.296Z,95652.58
2024-03-11T03:46:56.617Z,95657.99
2024-03-11T03:49:28.419Z,95662.91
2024-03-11T03:52:01.103Z,95664.26
2024-03-11T03:54:32.129Z,95660.45
2024-03-11T03:57:03.150Z,95658.30
2024-03-11T03:59:34.878Z,95663.20
2024-03-11T04:02:06.044Z,95664.70
2024-03-11T04:04:39.819Z,95664.71
2024-03-11T04:07:11.562Z,95669.11
2024-03-11T04:09:42.474Z,95672.52
2024-03-11T04:12:13.741Z,95674.75
2024-03-11T04:14:44.833Z,95676.70
2024-03-11T04:17:15.910Z,95675.20
2024-03-11T04:19:49.371Z,95673.97
2024-03-11T04:22:21.550Z,95669.95
2024-03-11T04:24:52.429Z,95667.14
2024-03-11T04:27:23.975Z,95666.37
2024-03-11T04:29:54.901Z,95667.09
2024-03-11T04:32:25.889Z,95665.69
2024-03-11T04:34:57.746Z,95658.09
2024-03-11T04:37:28.723Z,95653.60
2024-03-11T04:39:59.651Z,95650.66
2024-03-11T04:42:31.002Z,95645.39
2024-03-11T04:45:01.924Z,95642.26
2024-03-11T04:47:33.061Z,95638.27
2024-03-11T04:50:04.252Z,95637.45
2024-03-11T04:52:35.244Z,95635.69
2024-03-11T04:55:07.466Z,95628.52
2024-03-11T04:57:38.595Z,95618.17
2024-03-11T05:00:13.577Z,95624.19
2024-03-11T05:02:44.681Z,95624.52
2024-03-11T05:05:16.193Z,95626.70
2024-03-11T05:07:47.184Z,95622.39
2024-03-11T05:10:18.198Z,95614.27
2024-03-11T05:12:50.967Z,95613.80
2024-03-11T05:15:22.838Z,95617.70
2024-03-11T05:17:54.116Z,95620.61
2024-03-11T05:20:25.311Z,95624.38
2024-03-11T05:22:56.341Z,95626.30
2024-03-11T05:25:27.343Z,95633.48
2024-03-11T05:27:59.590Z,95637.25
2024-03-11T05:30:30.805Z,95644.54
2024-03-11T05:33:03.487Z,95652.02
2024-03-11T05:35:34.631Z,95657.80
2024-03-11T05:38:05.884Z,95659.98
2024-03-11T05:40:36.842Z,95667.32
2024-03-11T05:43:08.006Z,95671.95
2024-03-11T05:45:38.972Z,95675.99
2024-03-11T05:48:11.179Z,95683.80
2024-03-11T05:50:42.315Z,95683.83
2024-03-11T05:53:14.360Z,95685.73
2024-03-11T05:55:47.349Z,95684.02
2024-03-11T05:58:18.496Z,95686.19
2024-03-11T06:00:49.760Z,95691.73
2024-03-11T06:03:20.722Z,95697.29
2024-03-11T06:05:53.420Z,95698.80
2024-03-11T06:08:24.974Z,95698.77
2024-03-11T06:10:55.990Z,95701.59
2024-03-11T06:13:27.015Z,95709.21
2024-03-11T06:15:57.884Z,95716.55
2024-03-11T06:18:30.295Z,95724.45
2024-03-11T06:21:01.920Z,95733.27
2024-03-11T06:23:33.525Z,95739.05
2024-03-11T06:26:04.657Z,95743.96
2024-03-11T06:28:35.801Z,95748.52
2024-03-11T06:31:06.967Z,95755.68
2024-03-11T06:33:37.868Z,95764.26
2024-03-11T06:36:09.830Z,95768.52
2024-03-11T06:38:41.544Z,95773.10
2024-03-11T06:41:14.556Z,95781.02
2024-03-11T06:43:46.125Z,95781.94
2024-03-11T06:46:17.952Z,95785.20
2024-03-11T06:48:49.300Z,95787.36
2024-03-11T06:51:20.339Z,95792.55
2024-03-11T06:53:51.488Z,95802.05
2024-03-11T06:56:22.397Z,95807.13
2024-03-11T06:58:53.368Z,95809.05
2024-03-11T07:01:24.464Z,95810.80
2024-03-11T07:03:55.666Z,95809.51
2024-03-11T07:06:26.751Z,95806.73
2024-03-11T07:08:57.701Z,95808.39
2024-03-11T07:11:28.853Z,95806.64
2024-03-11T07:13:59.912Z,95810.63
2024-03-11T07:16:32.923Z,95808.41
2024-03-11T07:19:03.843Z,95811.70
2024-03-11T07:21:35.343Z,95808.98
2024-03-11T07:24:07.328Z,95810.02
2024-03-11T07:26:40.139Z,95808.16
2024-03-11T07:29:12.543Z,95808.17
2024-03-11T07:31:45.194Z,95811.71
2024-03-11T07:34:16.377Z,95818.52
2024-03-11T07:36:47.276Z,95823.55
2024-03-11T07:39:18.559Z,95825.83
2024-03-11T07:41:50.000Z,95825.44
2024-03-11T07:44:20.932Z,95821.06
2024-03-11T07:46:51.868Z,95814.99
2024-03-11T07:49:22.940Z,95809.85
2024-03-11T07:51:53.945Z,95807.21
2024-03-11T07:54:24.933Z,95810.66
2024-03-11T07:56:55.850Z,95808.32
2024-03-11T07:59:26.810Z,95803.58
2024-03-11T08:01:58.980Z,95803.02
2024-03-11T08:04:30.300Z,95801.98
2024-03-11T08:07:01.256Z,95799.27
2024-03-11T08:09:32.245Z,95798.64
2024-03-11T08:12:03.183Z,95796.86
2024-03-11T08:14:34.840Z,95797.11
2024-03-11T08:17:08.616Z,95800.13
2024-03-11T08:19:39.731Z,95797.38
2024-03-11T08:22:10.918Z,95790.10
2024-03-11T08:24:41.886Z,95788.73
2024-03-11T08:27:15.202Z,95787.64
2024-03-11T08:29:46.349Z,95792.41
2024-03-11T08:32:17.241Z,95790.98
2024-03-11T08:34:49.808Z,95792.58
2024-03-11T08:37:20.708Z,95793.10
2024-03-11T08:39:52.183Z,95794.09
2024-03-11T08:42:23.365Z,95793.40
2024-03-11T08:44:55.205Z,95793.64
2024-03-11T08:47:27.366Z,95795.61
2024-03-11T08:49:59.771Z,95789.69
2024-03-11T08:52:31.196Z,95784.08
2024-03-11T08:55:02.165Z,95775.95
2024-03-11T08:57:34.040Z,95778.19
2024-03-11T09:00:07.652Z,95776.74
2024-03-11T09:02:38.798Z,95771.77
2024-03-11T09:05:14.017Z,95768.14
2024-03-11T09:07:47.584Z,95769.14
2024-03-11T09:10:18.843Z,95766.42
2024-03-11T09:12:51.002Z,95768.49
2024-03-11T09:15:25.613Z,95770.01
2024-03-11T09:17:56.958Z,95768.16
2024-03-11T09:20:29.217Z,95769.52
2024-03-11T09:23:02.305Z,95764.42
2024-03-11T09:25:33.302Z,95764.84
2024-03-11T09:28:06.483Z,95763.91
2024-03-11T09:30:39.577Z,95761.24
2024-03-11T09:33:13.601Z,95761.59
2024-03-11T09:35:44.932Z,95765.81
2024-03-11T09:38:15.969Z,95767.50
2024-03-11T09:40:49.011Z,95763.80
2024-03-11T09:43:22.093Z,95759.96
2024-03-11T09:45:53.398Z,95756.62
2024-03-11T09:48:24.534Z,95760.61
2024-03-11T09:50:58.980Z,95756.74
2024-03-11T09:53:31.186Z,95755.52
2024-03-11T09:56:04.309Z,95749.80
2024-03-11T09:58:37.478Z,95751.59
2024-03-11T10:01:10.918Z,95751.13
2024-03-11T10:03:42.460Z,95743.27
2024-03-11T10:06:14.450Z,95736.89
2024-03-11T10:08:46.878Z,95740.99
2024-03-11T10:11:22.785Z,95735.30
2024-03-11T10:13:54.389Z,95731.73
2024-03-11T10:16:27.659Z,95720.42
2024-03-11T10:19:04.644Z,95727.63
2024-03-11T10:21:36.929Z,95726.64
2024-03-11T10:24:10.535Z,95730.41
2024-03-11T10:26:43.406Z,95723.52
2024-03-11T10:29:18.225Z,95725.65
2024-03-11T10:31:53.132Z,95730.17
2024-03-11T10:34:25.947Z,95729.63
2024-03-11T10:37:02.374Z,95727.58
2024-03-11T10:39:42.858Z,95729.61
2024-03-11T10:42:30.087Z,95728.66
2024-03-11T10:45:06.557Z,95727.71
2024-03-11T10:47:40.287Z,95729.81
2024-03-11T10:50:16.355Z,95728.56
2024-03-11T10:52:50.139Z,95729.51
2024-03-11T10:55:23.477Z,95730.46
2024-03-11T10:57:58.226Z,95727.94
2024-03-11T11:00:35.126Z,95728.29
2024-03-11T11:03:15.528Z,95725.72
2024-03-11T11:05:53.594Z,95725.11
2024-03-11T11:08:31.621Z,95723.46
2024-03-11T11:11:04.300Z,95722.41
2024-03-11T11:13:38.268Z,95718.13
2024-03-11T11:16:10.860Z,95713.55
2024-03-11T11:18:44.109Z,95712.93
2024-03-11T11:21:17.536Z,95712.08
2024-03-11T11:23:49.018Z,95710.80
2024-03-11T11:26:46.745Z,95714.02
2024-03-11T11:29:25.972Z,95716.17
2024-03-11T11:32:09.324Z,95712.16
2024-03-11T11:34:57.096Z,95714.95
2024-03-11T11:37:41.255Z,95711.16
2024-03-11T11:40:33.387Z,95714.20
2024-03-11T11:43:22.081Z,95713.30
2024-03-11T11:45:57.382Z,95716.10
2024-03-11T11:48:32.485Z,95710.82
2024-03-11T11:51:04.364Z,95709.99
2024-03-11T11:53:45.663Z,95712.90
2024-03-11T11:56:28.134Z,95717.92
2024-03-11T11:59:06.279Z,95719.35
2024-03-11T12:01:52.604Z,95725.25
2024-03-11T12:04:24.693Z,95722.79
2024-03-11T12:06:55.816Z,95724.30
2024-03-11T12:09:27.930Z,95723.52
2024-03-11T12:12:01.826Z,95725.02
2024-03-11T12:14:33.224Z,95722.09
2024-03-11T12:17:09.464Z,95719.65
2024-03-11T12:19:41.006Z,95724.08
2024-03-11T12:22:16.835Z,95726.42
2024-03-11T12:24:48.109Z,95728.79
2024-03-11T12:27:19.083Z,95730.98
2024-03-11T12:29:50.523Z,95723.73
2024-03-11T12:32:25.250Z,95719.80
2024-03-11T12:34:56.312Z,95722.15
2024-03-11T12:37:27.527Z,95716.52
2024-03-11T12:40:02.125Z,95714.52
2024-03-11T12:42:33.380Z,95715.58
2024-03-11T12:45:05.113Z,95714.73
2024-03-11T12:47:36.096Z,95706.08
2024-03-11T12:50:12.438Z,95705.27
2024-03-11T12:52:45.016Z,95703.24
2024-03-11T12:55:17.567Z,95701.58
2024-03-11T12:57:49.111Z,95699.88
2024-03-11T13:00:25.585Z,95693.06
2024-03-11T13:03:13.286Z,95681.33
2024-03-11T13:06:01.295Z,95681.98
2024-03-11T13:08:34.600Z,95675.57
2024-03-11T13:11:10.454Z,95674.70
2024-03-11T13:13:43.234Z,95671.69
2024-03-11T13:16:18.139Z,95669.16
2024-03-11T13:18:53.682Z,95681.20
2024-03-11T13:21:29.615Z,95676.61
2024-03-11T13:24:00.772Z,95675.20
2024-03-11T13:26:31.673Z,95681.46
2024-03-11T13:29:03.533Z,95686.80
2024-03-11T13:31:34.536Z,95682.38
2024-03-11T13:34:06.824Z,95680.52
2024-03-11T13:36:39.303Z,95681.90
2024-03-11T13:39:18.238Z,95679.66
2024-03-11T13:41:50.997Z,95677.56
2024-03-11T13:44:22.670Z,95669.78
2024-03-11T13:46:55.736Z,95669.59
2024-03-11T13:49:26.940Z,95664.47
2024-03-11T13:51:59.055Z,95660.86
2024-03-11T13:54:30.309Z,95656.30
2024-03-11T13:57:01.613Z,95656.15
2024-03-11T13:59:34.193Z,95650.67
2024-03-11T14:02:05.290Z,95643.98
2024-03-11T14:04:36.296Z,95640.94
2024-03-11T14:07:07.408Z,95641.23
2024-03-11T14:09:38.580Z,95646.64
2024-03-11T14:12:10.196Z,95646.89
2024-03-11T14:14:42.344Z,95647.65
2024-03-11T14:17:13.485Z,95640.96
2024-03-11T14:19:46.380Z,95633.59
2024-03-11T14:22:17.350Z,95631.98
2024-03-11T14:24:49.480Z,95631.81
2024-03-11T14:27:22.981Z,95629.52
2024-03-11T14:29:54.489Z,95630.77
2024-03-11T14:32:25.594Z,95633.08
2024-03-11T14:34:56.589Z,95630.63
2024-03-11T14:37:29.212Z,95628.73
2024-03-11T14:40:01.986Z,95632.05
2024-03-11T14:42:33.681Z,95637.48
2024-03-11T14:45:05.375Z,95642.48
2024-03-11T14:47:38.424Z,95641.00
2024-03-11T14:50:16.918Z,95639.63
2024-03-11T14:52:48.352Z,95646.02
2024-03-11T14:55:19.240Z,95648.75
2024-03-11T14:57:52.040Z,95654.79
2024-03-11T15:00:27.352Z,95654.19
2024-03-11T15:02:58.974Z,95664.10
2024-03-11T15:05:31.164Z,95669.89
2024-03-11T15:08:02.341Z,95672.77
2024-03-11T15:10:34.754Z,95672.98
2024-03-11T15:13:09.604Z,95677.09
2024-03-11T15:15:42.833Z,95677.11
2024-03-11T15:18:16.312Z,95678.66
2024-03-11T15:20:51.359Z,95679.03
2024-03-11T15:23:25.856Z,95682.16
2024-03-11T15:25:58.402Z,95684.60
2024-03-11T15:28:29.563Z,95687.93
2024-03-11T15:31:01.798Z,95683.25
2024-03-11T15:33:33.426Z,95687.68
2024-03-11T15:36:04.395Z,95689.27
2024-03-11T15:38:35.526Z,95697.21
2024-03-11T15:41:06.838Z,95698.61
2024-03-11T15:43:39.825Z,95704.48
2024-03-11T15:46:12.063Z,95702.38
2024-03-11T15:48:43.624Z,95707.40
2024-03-11T15:51:16.287Z,95707.77
2024-03-11T15:53:52.063Z,95708.26
2024-03-11T15:56:25.024Z,95711.23
2024-03-11T15:58:57.440Z,95713.70
2024-03-11T16:01:32.984Z,95716.17
2024-03-11T16:04:06.329Z,95721.73
2024-03-11T16:06:39.060Z,95721.39
2024-03-11T16:09:12.325Z,95729.52
2024-03-11T16:11:44.996Z,95728.89
2024-03-11T16:14:17.328Z,95739.11
2024-03-11T16:16:51.649Z,95741.58
2024-03-11T16:19:23.745Z,95744.61
2024-03-11T16:21:55.114Z,95744.77
2024-03-11T16:24:26.515Z,95749.88
2024-03-11T16:26:57.776Z,95754.52
2024-03-11T16:29:30.415Z,95756.24
2024-03-11T16:32:01.333Z,95761.70
2024-03-11T16:34:33.034Z,95767.59
2024-03-11T16:37:06.018Z,95768.63
2024-03-11T16:39:37.100Z,95777.59
2024-03-11T16:42:08.663Z,95781.30
2024-03-11T16:44:40.914Z,95783.26
2024-03-11T16:47:12.622Z,95783.03
2024-03-11T16:49:44.199Z,95785.87
2024-03-11T16:52:17.011Z,95786.01
2024-03-11T16:54:49.250Z,95792.69
2024-03-11T16:57:23.445Z,95795.08
2024-03-11T16:59:54.479Z,95796.69
2024-03-11T17:02:29.611Z,95799.77
2024-03-11T17:05:05.001Z,95805.95
2024-03-11T17:07:36.589Z,95807.98
2024-03-11T17:10:08.693Z,95807.50
2024-03-11T17:12:45.197Z,95808.85
2024-03-11T17:15:18.058Z,95807.67
2024-03-11T17:17:51.860Z,95805.77
2024-03-11T17:20:26.612Z,95807.91
2024-03-11T17:22:59.032Z,95802.67
2024-03-11T17:25:30.423Z,95804.91
2024-03-11T17:28:07.294Z,95803.06
2024-03-11T17:30:41.474Z,95808.84
2024-03-11T17:33:15.764Z,95806.92
2024-03-11T17:35:50.728Z,95808.45
2024-03-11T17:38:24.357Z,95804.58
2024-03-11T17:40:55.972Z,95806.10
2024-03-11T17:43:28.351Z,95809.27
2024-03-11T17:46:01.592Z,95810.33
2024-03-11T17:48:35.964Z,95810.54
2024-03-11T17:51:09.107Z,95804.87
2024-03-11T17:53:40.909Z,95798.46
2024-03-11T17:56:12.464Z,95803.11
2024-03-11T17:58:45.548Z,95798.84
2024-03-11T18:01:16.777Z,95800.19
2024-03-11T18:03:51.316Z,95803.64
2024-03-11T18:06:22.504Z,95806.16
2024-03-11T18:08:53.517Z,95809.66
2024-03-11T18:11:27.051Z,95808.00
2024-03-11T18:13:58.033Z,95805.25
2024-03-11T18:16:29.691Z,95805.54
2024-03-11T18:19:01.180Z,95804.90
2024-03-11T18:21:32.650Z,95803.34
2024-03-11T18:24:05.137Z,95802.31
2024-03-11T18:26:36.729Z,95805.96
2024-03-11T18:29:07.664Z,95805.58
2024-03-11T18:31:38.669Z,95807.78
2024-03-11T18:34:10.260Z,95808.59
2024-03-11T18:36:41.326Z,95810.60
2024-03-11T18:39:19.818Z,95812.03
2024-03-11T18:41:54.135Z,95813.61
2024-03-11T18:44:25.916Z,95813.55
2024-03-11T18:46:57.265Z,95810.20
2024-03-11T18:49:28.280Z,95806.11
2024-03-11T18:51:59.395Z,95800.89
2024-03-11T18:54:30.430Z,95797.00
2024-03-11T18:57:04.588Z,95802.33
2024-03-11T18:59:36.406Z,95800.10
2024-03-11T19:02:09.158Z,95805.93
2024-03-11T19:04:40.152Z,95805.06
2024-03-11T19:07:13.516Z,95805.11
2024-03-11T19:09:47.015Z,95803.52
2024-03-11T19:12:18.046Z,95802.16
2024-03-11T19:14:49.065Z,95801.17
2024-03-11T19:17:20.330Z,95799.52
2024-03-11T19:19:52.316Z,95796.56
2024-03-11T19:22:23.260Z,95800.84
2024-03-11T19:24:54.276Z,95788.26
2024-03-11T19:27:27.048Z,95794.56
2024-03-11T19:29:59.011Z,95788.98
2024-03-11T19:32:29.964Z,95786.58
2024-03-11T19:35:02.840Z,95785.72
2024-03-11T19:38:04.602Z,95791.02
2024-03-11T19:40:40.475Z,95785.13
2024-03-11T19:43:39.459Z,95785.65
2024-03-11T19:47:08.432Z,95789.48
2024-03-11T19:50:39.787Z,95789.42
2024-03-11T19:53:44.976Z,95789.96
2024-03-11T19:57:01.757Z,95801.16
2024-03-11T20:00:26.985Z,95806.98
2024-03-11T20:03:34.062Z,95794.73
2024-03-11T20:06:33.523Z,95798.41
2024-03-11T20:09:22.746Z,95793.68
2024-03-11T20:12:25.392Z,95787.92
2024-03-11T20:14:58.348Z,95779.84
2024-03-11T20:18:05.756Z,95784.79
2024-03-11T20:21:06.833Z,95779.64
2024-03-11T20:24:12.307Z,95772.05
2024-03-11T20:26:49.771Z,95773.57
2024-03-11T20:29:27.346Z,95770.61
2024-03-11T20:32:01.504Z,95771.23
2024-03-11T20:34:32.556Z,95770.11
2024-03-11T20:37:05.524Z,95765.03
2024-03-11T20:39:39.128Z,95759.21
2024-03-11T20:42:12.140Z,95757.95
2024-03-11T20:44:43.526Z,95762.98
2024-03-11T20:47:14.518Z,95769.14
2024-03-11T20:49:45.403Z,95768.35
2024-03-11T20:52:17.609Z,95766.89
2024-03-11T20:54:48.662Z,95763.04
2024-03-11T20:57:22.894Z,95762.63
2024-03-11T20:59:54.531Z,95759.17
2024-03-11T21:02:25.466Z,95761.80
2024-03-11T21:04:57.052Z,95753.98
2024-03-11T21:07:28.919Z,95759.36
2024-03-11T21:10:00.338Z,95760.85
2024-03-11T21:12:31.753Z,95761.39
2024-03-11T21:15:04.478Z,95756.22
2024-03-11T21:17:36.738Z,95755.35
2024-03-11T21:20:24.202Z,95761.73
2024-03-11T21:23:04.726Z,95759.38
2024-03-11T21:25:54.036Z,95752.58
2024-03-11T21:28:25.104Z,95747.38
2024-03-11T21:30:56.799Z,95750.92
2024-03-11T21:33:28.389Z,95755.24
2024-03-11T21:35:59.560Z,95748.08
2024-03-11T21:38:32.606Z,95754.95
2024-03-11T21:41:05.750Z,95754.33
2024-03-11T21:43:36.752Z,95755.58
2024-03-11T21:46:10.738Z,95755.92
2024-03-11T21:48:41.958Z,95750.02
2024-03-11T21:51:14.276Z,95748.69
2024-03-11T21:53:47.268Z,95751.55
2024-03-11T21:56:18.219Z,95747.15
2024-03-11T21:58:49.161Z,95753.52
2024-03-11T22:01:20.389Z,95752.48
2024-03-11T22:03:51.679Z,95757.27
2024-03-11T22:06:22.837Z,95756.76
2024-03-11T22:08:56.363Z,95760.23
2024-03-11T22:11:29.667Z,95756.98
2024-03-11T22:14:00.601Z,95748.32
2024-03-11T22:16:31.516Z,95743.34
2024-03-11T22:19:02.998Z,95741.55
2024-03-11T22:21:34.234Z,95749.98
2024-03-11T22:24:06.578Z,95750.66
2024-03-11T22:26:37.485Z,95755.96
2024-03-11T22:29:09.145Z,95753.32
2024-03-11T22:31:40.342Z,95746.73
2024-03-11T22:34:15.137Z,95749.90
2024-03-11T22:36:47.316Z,95746.70
2024-03-11T22:39:20.334Z,95749.76
2024-03-11T22:41:51.707Z,95757.16
2024-03-11T22:44:23.233Z,95760.52
2024-03-11T22:46:54.230Z,95758.37
2024-03-11T22:49:25.640Z,95761.73
2024-03-11T22:51:56.682Z,95761.38
2024-03-11T22:54:30.199Z,95760.11
2024-03-11T22:57:11.995Z,95760.58
2024-03-11T22:59:43.151Z,95766.45
2024-03-11T23:02:18.308Z,95767.96
2024-03-11T23:04:51.120Z,95771.15
2024-03-11T23:07:24.487Z,95768.17
2024-03-11T23:09:55.625Z,95771.06
2024-03-11T23:12:26.803Z,95766.80
2024-03-11T23:14:57.708Z,95767.84
2024-03-11T23:17:28.696Z,95767.25
2024-03-11T23:19:59.649Z,95768.61
2024-03-11T23:22:30.556Z,95775.25
2024-03-11T23:25:02.403Z,95772.60
2024-03-11T23:27:33.508Z,95772.27
2024-03-11T23:30:14.368Z,95777.48
2024-03-11T23:32:45.364Z,95782.39
2024-03-11T23:35:16.541Z,95783.23
2024-03-11T23:37:47.612Z,95783.52
2024-03-11T23:40:20.676Z,95790.38
2024-03-11T23:42:53.445Z,95790.88
2024-03-11T23:45:24.842Z,95794.22
2024-03-11T23:47:57.865Z,95792.36
2024-03-11T23:50:29.362Z,95798.84
2024-03-11T23:53:00.310Z,95798.40
2024-03-11T23:55:31.250Z,95802.58
2024-03-11T23:58:02.283Z,95802.18
